Time;durP1;ratioP1;P1;durP2;ratioP2;P2;SDS_P1;SDS_P2;PMS_P1;PMS_P2;Temp;Humidity;BMP_temperature;BMP_pressure;BME280_temperature;BME280_humidity;BME280_pressure;Samples;Min_cycle;Max_cycle;Signal;HPM_P1;HPM_P2
2022/08/08 00:02:04;;;;;;;;;;;15.10;99.90;;;;;;5067418;28;19923;-70
2022/08/08 00:04:44;;;;;;;;;;;15.10;99.90;;;;;;5069274;28;20304;-70
2022/08/08 00:07:33;;;;;;;;;;;15.00;99.90;;;;;;5070975;28;19923;-70
2022/08/08 00:09:59;;;;;;;;;;;15.00;99.90;;;;;;5072967;28;20027;-71
2022/08/08 00:12:37;;;;;;;;;;;15.00;99.90;;;;;;5070476;28;20010;-70
2022/08/08 00:15:23;;;;;;;;;;;15.00;99.90;;;;;;5070188;28;19916;-70
2022/08/08 00:17:57;;;;;;;;;;;15.00;99.90;;;;;;5100668;28;19930;-70
2022/08/08 00:20:32;;;;;;;;;;;14.90;99.90;;;;;;5071975;28;19920;-70
2022/08/08 00:23:06;;;;;;;;;;;14.90;99.90;;;;;;5069121;28;19994;-70
2022/08/08 00:25:37;;;;;;;;;;;14.90;99.90;;;;;;5082914;28;19923;-70
2022/08/08 00:28:04;;;;;;;;;;;14.90;99.90;;;;;;5071601;28;20219;-70
2022/08/08 00:30:33;;;;;;;;;;;14.90;99.90;;;;;;5069219;28;19924;-69
2022/08/08 00:33:11;;;;;;;;;;;14.90;99.90;;;;;;5064790;28;19927;-70
2022/08/08 00:35:45;;;;;;;;;;;15.00;99.90;;;;;;5070245;28;19931;-70
2022/08/08 00:38:29;;;;;;;;;;;15.00;99.90;;;;;;5065379;28;19917;-70
2022/08/08 00:40:58;;;;;;;;;;;15.00;99.90;;;;;;5068670;28;20002;-70
2022/08/08 00:43:42;;;;;;;;;;;15.00;99.90;;;;;;5072162;28;20184;-70
2022/08/08 00:46:16;;;;;;;;;;;15.00;99.90;;;;;;5069744;28;20303;-70
2022/08/08 00:48:50;;;;;;;;;;;15.00;99.90;;;;;;5067301;28;20223;-70
2022/08/08 00:51:28;;;;;;;;;;;15.00;99.90;;;;;;5072638;28;19916;-70
2022/08/08 00:54:12;;;;;;;;;;;15.00;99.90;;;;;;5064851;28;20262;-69
2022/08/08 00:56:52;;;;;;;;;;;14.90;99.90;;;;;;5077402;28;19917;-69
2022/08/08 00:59:36;;;;;;;;;;;14.80;99.90;;;;;;5068054;28;20367;-70
2022/08/08 01:02:10;;;;;;;;;;;14.70;99.90;;;;;;5068359;28;19913;-69
2022/08/08 01:04:36;;;;;;;;;;;14.70;99.90;;;;;;5070135;28;19931;-70
2022/08/08 01:07:20;;;;;;;;;;;14.60;99.90;;;;;;5070506;28;19916;-70
2022/08/08 01:09:55;;;;;;;;;;;14.50;99.90;;;;;;5080726;28;19927;-70
2022/08/08 01:12:20;;;;;;;;;;;14.50;99.90;;;;;;5071819;28;20007;-70
2022/08/08 01:14:49;;;;;;;;;;;14.50;99.90;;;;;;5070022;28;20007;-70
2022/08/08 01:17:17;;;;;;;;;;;14.40;99.90;;;;;;5067959;28;19920;-69
2022/08/08 01:20:14;;;;;;;;;;;14.40;99.90;;;;;;5067950;28;19920;-70
2022/08/08 01:22:39;;;;;;;;;;;14.40;99.90;;;;;;5072303;28;19916;-70
2022/08/08 01:25:24;;;;;;;;;;;14.40;99.90;;;;;;5066396;28;19931;-69
2022/08/08 01:27:49;;;;;;;;;;;14.40;99.90;;;;;;5065490;28;19936;-70
2022/08/08 01:30:33;;;;;;;;;;;14.40;99.90;;;;;;5066025;28;19921;-70
2022/08/08 01:33:05;;;;;;;;;;;14.30;99.90;;;;;;5070432;28;19913;-70
2022/08/08 01:35:33;;;;;;;;;;;14.30;99.90;;;;;;5063374;28;20007;-70
2022/08/08 01:38:04;;;;;;;;;;;14.30;99.90;;;;;;5071238;28;19994;-70
2022/08/08 01:40:45;;;;;;;;;;;14.30;99.90;;;;;;5069733;28;19970;-70
2022/08/08 01:43:29;;;;;;;;;;;14.30;99.90;;;;;;5073507;28;19924;-73
2022/08/08 01:46:12;;;;;;;;;;;14.30;99.90;;;;;;5074013;28;19917;-70
2022/08/08 01:48:37;;;;;;;;;;;14.30;99.90;;;;;;5071781;28;19920;-70
2022/08/08 01:51:30;;;;;;;;;;;14.40;99.90;;;;;;5070881;28;20224;-70
2022/08/08 01:54:01;;;;;;;;;;;14.50;99.90;;;;;;5072552;28;19928;-70
2022/08/08 01:56:30;;;;;;;;;;;14.50;99.90;;;;;;5073950;28;20247;-70
2022/08/08 01:59:07;;;;;;;;;;;14.40;99.90;;;;;;5073631;28;19916;-70
2022/08/08 02:01:51;;;;;;;;;;;14.30;99.90;;;;;;5072105;28;19923;-70
2022/08/08 02:04:28;;;;;;;;;;;14.20;99.90;;;;;;5072842;28;20007;-70
2022/08/08 02:07:09;;;;;;;;;;;14.10;99.90;;;;;;5071561;28;19919;-70
2022/08/08 02:09:43;;;;;;;;;;;14.20;99.90;;;;;;5074226;28;19916;-70
2022/08/08 02:12:14;;;;;;;;;;;14.20;99.90;;;;;;5106921;28;19962;-70
2022/08/08 02:14:45;;;;;;;;;;;14.20;99.90;;;;;;5073250;28;19931;-70
2022/08/08 02:17:22;;;;;;;;;;;14.20;99.90;;;;;;5062715;28;19920;-70
2022/08/08 02:20:06;;;;;;;;;;;14.10;99.90;;;;;;5070064;28;20223;-70
2022/08/08 02:22:46;;;;;;;;;;;14.10;99.90;;;;;;5069911;28;19952;-70
2022/08/08 02:25:28;;;;;;;;;;;14.10;99.90;;;;;;5072456;28;19916;-70
2022/08/08 02:28:05;;;;;;;;;;;14.10;99.90;;;;;;5071021;28;19916;-70
2022/08/08 02:30:54;;;;;;;;;;;14.10;99.90;;;;;;5060720;28;19917;-70
2022/08/08 02:33:31;;;;;;;;;;;14.10;99.90;;;;;;5065870;28;20353;-70
2022/08/08 02:36:12;;;;;;;;;;;13.90;99.90;;;;;;5071824;28;19916;-70
2022/08/08 02:38:38;;;;;;;;;;;13.80;99.90;;;;;;5070579;28;19912;-70
2022/08/08 02:41:03;;;;;;;;;;;13.70;99.90;;;;;;5073281;28;20432;-70
2022/08/08 02:43:34;;;;;;;;;;;13.70;99.90;;;;;;5067816;28;19912;-70
2022/08/08 02:46:15;;;;;;;;;;;13.70;99.90;;;;;;5073362;28;19913;-70
2022/08/08 02:48:59;;;;;;;;;;;13.70;99.90;;;;;;5069432;28;19923;-70
2022/08/08 02:51:31;;;;;;;;;;;13.70;99.90;;;;;;5065394;28;19916;-70
2022/08/08 02:54:02;;;;;;;;;;;13.80;99.90;;;;;;5072423;28;19936;-70
2022/08/08 02:56:28;;;;;;;;;;;13.80;99.90;;;;;;5067495;28;20015;-71
2022/08/08 02:59:12;;;;;;;;;;;13.80;99.90;;;;;;5071515;28;20039;-70
2022/08/08 03:01:52;;;;;;;;;;;13.80;99.90;;;;;;5071201;28;20009;-70
2022/08/08 03:04:37;;;;;;;;;;;13.80;99.90;;;;;;5070159;28;19962;-70
2022/08/08 03:07:05;;;;;;;;;;;13.90;99.90;;;;;;5067434;28;19916;-70
2022/08/08 03:09:40;;;;;;;;;;;13.90;99.90;;;;;;5080059;28;19922;-70
2022/08/08 03:12:14;;;;;;;;;;;13.90;99.90;;;;;;5072094;28;19916;-70
2022/08/08 03:14:40;;;;;;;;;;;14.00;99.90;;;;;;5070934;28;20302;-70
2022/08/08 03:17:28;;;;;;;;;;;14.00;99.90;;;;;;5072612;28;19917;-70
2022/08/08 03:20:06;;;;;;;;;;;14.00;99.90;;;;;;5072045;28;19923;-70
2022/08/08 03:22:32;;;;;;;;;;;14.00;99.90;;;;;;5071313;28;19917;-70
2022/08/08 03:25:02;;;;;;;;;;;14.00;99.90;;;;;;5070694;28;19912;-70
2022/08/08 03:27:32;;;;;;;;;;;13.90;99.90;;;;;;5072357;28;19912;-70
2022/08/08 03:30:00;;;;;;;;;;;13.90;99.90;;;;;;5069873;28;19947;-71
2022/08/08 03:35:10;;;;;;;;;;;13.90;99.90;;;;;;5070295;28;20357;-70
2022/08/08 03:37:36;;;;;;;;;;;13.90;99.90;;;;;;5070457;28;19916;-70
2022/08/08 03:40:03;;;;;;;;;;;13.90;99.90;;;;;;5073414;28;19916;-70
2022/08/08 03:42:28;;;;;;;;;;;13.80;99.90;;;;;;5102158;28;19977;-71
2022/08/08 03:44:54;;;;;;;;;;;13.80;99.90;;;;;;5068819;28;20348;-70
2022/08/08 03:47:24;;;;;;;;;;;13.70;99.90;;;;;;5070508;28;19944;-70
2022/08/08 03:49:50;;;;;;;;;;;13.70;99.90;;;;;;5065489;28;19916;-71
2022/08/08 03:52:15;;;;;;;;;;;13.70;99.90;;;;;;5071529;28;20341;-71
2022/08/08 03:54:43;;;;;;;;;;;13.70;99.90;;;;;;5065921;28;19935;-70
2022/08/08 03:57:12;;;;;;;;;;;13.80;99.90;;;;;;5058524;28;19920;-71
2022/08/08 03:59:38;;;;;;;;;;;13.80;99.90;;;;;;5062442;28;20012;-70
2022/08/08 04:02:13;;;;;;;;;;;13.60;99.90;;;;;;5059246;28;20050;-71
2022/08/08 04:04:38;;;;;;;;;;;13.70;99.90;;;;;;5067854;28;19921;-70
2022/08/08 04:07:04;;;;;;;;;;;13.70;99.90;;;;;;5068342;28;19931;-70
2022/08/08 04:09:30;;;;;;;;;;;13.70;99.90;;;;;;5069927;28;19916;-70
2022/08/08 04:11:58;;;;;;;;;;;13.70;99.90;;;;;;5067608;28;19927;-70
2022/08/08 04:14:23;;;;;;;;;;;13.80;99.90;;;;;;5068145;28;20243;-70
2022/08/08 04:16:49;;;;;;;;;;;13.80;99.90;;;;;;5064780;28;19928;-71
2022/08/08 04:19:14;;;;;;;;;;;13.80;99.90;;;;;;5062463;28;20645;-71
2022/08/08 04:21:40;;;;;;;;;;;13.80;99.90;;;;;;5061373;28;20323;-71
2022/08/08 04:24:06;;;;;;;;;;;13.70;99.90;;;;;;5101573;28;19959;-70
2022/08/08 04:26:31;;;;;;;;;;;13.70;99.90;;;;;;5069816;28;19999;-70
2022/08/08 04:28:57;;;;;;;;;;;13.70;99.90;;;;;;5069861;28;20335;-70
2022/08/08 04:31:22;;;;;;;;;;;13.70;99.90;;;;;;5064205;28;19916;-71
2022/08/08 04:33:48;;;;;;;;;;;13.70;99.90;;;;;;5070103;28;20275;-70
2022/08/08 04:36:13;;;;;;;;;;;13.70;99.90;;;;;;5070608;28;19970;-70
2022/08/08 04:38:39;;;;;;;;;;;13.70;99.90;;;;;;5071180;28;19917;-71
2022/08/08 04:41:04;;;;;;;;;;;13.70;99.90;;;;;;5067183;28;20451;-71
2022/08/08 04:43:31;;;;;;;;;;;13.70;99.90;;;;;;5067673;28;19956;-71
2022/08/08 04:45:56;;;;;;;;;;;13.70;99.90;;;;;;5066732;28;19959;-71
2022/08/08 04:48:22;;;;;;;;;;;13.70;99.90;;;;;;5066881;28;19959;-70
2022/08/08 04:50:47;;;;;;;;;;;13.60;99.90;;;;;;5068805;28;19913;-71
2022/08/08 04:53:13;;;;;;;;;;;13.50;99.90;;;;;;5068061;28;20315;-70
2022/08/08 04:55:39;;;;;;;;;;;13.50;99.90;;;;;;5063308;28;19999;-71
2022/08/08 04:58:05;;;;;;;;;;;13.50;99.90;;;;;;5067778;28;19935;-70
2022/08/08 05:00:30;;;;;;;;;;;13.50;99.90;;;;;;5071128;28;20220;-70
2022/08/08 05:02:56;;;;;;;;;;;13.60;99.90;;;;;;5067097;28;20242;-70
2022/08/08 05:05:22;;;;;;;;;;;13.60;99.90;;;;;;5072535;28;19994;-71
2022/08/08 05:07:47;;;;;;;;;;;13.60;99.90;;;;;;5063891;28;19962;-71
2022/08/08 05:10:13;;;;;;;;;;;13.70;99.90;;;;;;5070140;28;19913;-71
2022/08/08 05:12:39;;;;;;;;;;;13.80;99.90;;;;;;5063222;28;19917;-71
2022/08/08 05:15:04;;;;;;;;;;;13.80;99.90;;;;;;5071898;28;19916;-71
2022/08/08 05:17:30;;;;;;;;;;;13.90;99.90;;;;;;5066563;28;19920;-71
2022/08/08 05:19:56;;;;;;;;;;;14.00;99.90;;;;;;5071273;28;19961;-71
2022/08/08 05:22:22;;;;;;;;;;;14.00;99.90;;;;;;5073977;28;19923;-71
2022/08/08 05:24:47;;;;;;;;;;;14.00;99.90;;;;;;5072838;28;19912;-71
2022/08/08 05:27:13;;;;;;;;;;;14.10;99.90;;;;;;5070153;28;20003;-70
2022/08/08 05:29:38;;;;;;;;;;;14.10;99.90;;;;;;5071321;28;19994;-70
2022/08/08 05:32:04;;;;;;;;;;;14.20;99.90;;;;;;5073816;28;19912;-71
2022/08/08 05:34:49;;;;;;;;;;;14.30;99.90;;;;;;5074028;28;20029;-71
2022/08/08 05:37:25;;;;;;;;;;;14.30;99.90;;;;;;5070168;28;19967;-70
2022/08/08 05:39:51;;;;;;;;;;;14.40;99.90;;;;;;5064676;28;19916;-71
2022/08/08 05:42:17;;;;;;;;;;;14.50;99.90;;;;;;5072860;28;19996;-71
2022/08/08 05:44:47;;;;;;;;;;;14.60;99.90;;;;;;5072722;28;20019;-71
2022/08/08 05:47:13;;;;;;;;;;;14.80;99.90;;;;;;5072775;28;19983;-72
2022/08/08 05:49:39;;;;;;;;;;;14.90;99.90;;;;;;5075221;28;19920;-71
2022/08/08 05:52:05;;;;;;;;;;;14.90;99.90;;;;;;5074870;28;20032;-70
2022/08/08 05:54:30;;;;;;;;;;;15.00;99.90;;;;;;5073176;28;19999;-71
2022/08/08 05:56:56;;;;;;;;;;;15.10;99.90;;;;;;5072168;28;19981;-71
2022/08/08 05:59:22;;;;;;;;;;;15.20;99.90;;;;;;5071428;28;20269;-71
2022/08/08 06:01:55;;;;;;;;;;;15.30;99.90;;;;;;5073455;28;19916;-70
2022/08/08 06:04:28;;;;;;;;;;;15.40;99.90;;;;;;5066627;28;20261;-71
2022/08/08 06:06:58;;;;;;;;;;;15.40;99.90;;;;;;5073729;28;20299;-70
2022/08/08 06:09:28;;;;;;;;;;;15.50;99.90;;;;;;5068982;28;19920;-70
2022/08/08 06:12:01;;;;;;;;;;;15.60;99.90;;;;;;5104788;28;19917;-70
2022/08/08 06:14:28;;;;;;;;;;;15.70;99.90;;;;;;5073715;28;20327;-71
2022/08/08 06:17:00;;;;;;;;;;;15.80;99.90;;;;;;5066199;28;19921;-74
2022/08/08 06:19:26;;;;;;;;;;;15.90;99.90;;;;;;5072339;28;19917;-70
2022/08/08 06:21:52;;;;;;;;;;;16.00;99.90;;;;;;5104325;27;19931;-70
2022/08/08 06:24:18;;;;;;;;;;;16.10;99.90;;;;;;5068249;28;20315;-70
2022/08/08 06:26:49;;;;;;;;;;;16.20;99.90;;;;;;5071251;28;19916;-70
2022/08/08 06:29:18;;;;;;;;;;;16.30;99.90;;;;;;5072266;28;19916;-70
2022/08/08 06:31:44;;;;;;;;;;;16.60;99.90;;;;;;5074298;28;19974;-71
2022/08/08 06:34:14;;;;;;;;;;;16.70;99.90;;;;;;5071754;28;19931;-70
2022/08/08 06:36:42;;;;;;;;;;;16.80;99.90;;;;;;5071118;28;19924;-71
2022/08/08 06:39:11;;;;;;;;;;;17.00;99.90;;;;;;5086541;28;19928;-70
2022/08/08 06:41:48;;;;;;;;;;;17.20;99.90;;;;;;5067662;28;19916;-71
2022/08/08 06:44:15;;;;;;;;;;;17.40;99.90;;;;;;5072149;28;19913;-70
2022/08/08 06:46:41;;;;;;;;;;;17.50;99.90;;;;;;5071900;28;19939;-71
2022/08/08 06:49:07;;;;;;;;;;;17.70;99.90;;;;;;5071240;28;19924;-71
2022/08/08 06:51:34;;;;;;;;;;;17.70;99.90;;;;;;5073650;28;19917;-71
2022/08/08 06:54:00;;;;;;;;;;;17.80;99.90;;;;;;5065929;28;19912;-70
2022/08/08 06:56:27;;;;;;;;;;;17.70;99.90;;;;;;5069498;28;19946;-71
2022/08/08 06:58:52;;;;;;;;;;;17.70;99.90;;;;;;5069166;28;19921;-71
2022/08/08 07:01:18;;;;;;;;;;;17.60;99.90;;;;;;5089289;28;20266;-70
2022/08/08 07:03:43;;;;;;;;;;;17.60;99.90;;;;;;5073269;28;20311;-71
2022/08/08 07:06:09;;;;;;;;;;;17.60;99.90;;;;;;5070200;28;19943;-70
2022/08/08 07:08:37;;;;;;;;;;;17.50;99.90;;;;;;5069680;28;20271;-70
2022/08/08 07:11:03;;;;;;;;;;;17.60;99.90;;;;;;5069847;28;19908;-70
2022/08/08 07:13:36;;;;;;;;;;;17.60;99.90;;;;;;5073177;28;19916;-70
2022/08/08 07:16:03;;;;;;;;;;;17.70;99.90;;;;;;5067031;28;19921;-70
2022/08/08 07:18:47;;;;;;;;;;;17.90;99.90;;;;;;5068987;28;19969;-69
2022/08/08 07:21:15;;;;;;;;;;;18.00;99.90;;;;;;5066839;28;19935;-70
2022/08/08 07:23:52;;;;;;;;;;;18.20;99.90;;;;;;5070926;28;19921;-70
2022/08/08 07:26:20;;;;;;;;;;;18.40;99.90;;;;;;5065571;28;19998;-73
2022/08/08 07:28:46;;;;;;;;;;;18.50;99.90;;;;;;5068092;28;20677;-71
2022/08/08 07:31:11;;;;;;;;;;;18.70;99.90;;;;;;5069274;28;19919;-70
2022/08/08 07:33:37;;;;;;;;;;;18.90;99.90;;;;;;5063724;28;20015;-69
2022/08/08 07:36:06;;;;;;;;;;;19.00;99.90;;;;;;5071581;28;19912;-72
2022/08/08 07:38:32;;;;;;;;;;;19.30;99.90;;;;;;5072108;28;19962;-70
2022/08/08 07:41:00;;;;;;;;;;;19.60;99.90;;;;;;5067117;28;19921;-69
2022/08/08 07:43:28;;;;;;;;;;;19.80;99.90;;;;;;5071704;28;19920;-70
2022/08/08 07:45:53;;;;;;;;;;;19.80;99.90;;;;;;5069287;28;19916;-70
2022/08/08 07:48:19;;;;;;;;;;;19.80;99.90;;;;;;5068021;28;19916;-71
2022/08/08 07:50:45;;;;;;;;;;;19.80;99.90;;;;;;5066420;28;19977;-70
2022/08/08 07:53:24;;;;;;;;;;;19.80;99.90;;;;;;5070868;28;19922;-70
2022/08/08 07:55:51;;;;;;;;;;;19.70;99.90;;;;;;5072593;28;20041;-70
2022/08/08 07:58:37;;;;;;;;;;;19.80;99.90;;;;;;5069649;28;19978;-70
2022/08/08 08:01:11;;;;;;;;;;;19.80;99.90;;;;;;5068598;28;20259;-70
2022/08/08 08:03:42;;;;;;;;;;;19.70;99.90;;;;;;5069912;28;19939;-70
2022/08/08 08:06:10;;;;;;;;;;;19.70;99.90;;;;;;5071576;28;19912;-70
2022/08/08 08:08:46;;;;;;;;;;;19.50;99.90;;;;;;5070287;28;19920;-70
2022/08/08 08:11:13;;;;;;;;;;;19.60;99.90;;;;;;5071980;28;19937;-70
2022/08/08 08:13:51;;;;;;;;;;;19.60;99.90;;;;;;5070196;28;19966;-70
2022/08/08 08:16:24;;;;;;;;;;;19.60;99.90;;;;;;5100776;28;20023;-70
2022/08/08 08:18:54;;;;;;;;;;;19.70;99.90;;;;;;5066390;28;19927;-70
2022/08/08 08:21:21;;;;;;;;;;;19.70;99.90;;;;;;5082709;28;19927;-70
2022/08/08 08:23:46;;;;;;;;;;;19.70;99.90;;;;;;5068896;28;20386;-69
2022/08/08 08:26:12;;;;;;;;;;;19.90;99.90;;;;;;5067940;28;20019;-74
2022/08/08 08:28:41;;;;;;;;;;;20.10;99.90;;;;;;5071481;28;19920;-71
2022/08/08 08:31:07;;;;;;;;;;;20.10;99.90;;;;;;5070080;28;19923;-70
2022/08/08 08:33:33;;;;;;;;;;;20.20;99.90;;;;;;5066766;28;19916;-71
2022/08/08 08:36:00;;;;;;;;;;;20.20;99.90;;;;;;5065986;28;20492;-70
2022/08/08 08:38:25;;;;;;;;;;;20.20;99.90;;;;;;5069843;28;19921;-69
2022/08/08 08:40:51;;;;;;;;;;;20.40;99.90;;;;;;5070777;28;20213;-70
2022/08/08 08:43:17;;;;;;;;;;;20.50;99.90;;;;;;5068669;28;19967;-71
2022/08/08 08:45:43;;;;;;;;;;;20.70;99.90;;;;;;5070077;28;19913;-71
2022/08/08 08:48:09;;;;;;;;;;;20.90;99.90;;;;;;5070315;28;19970;-70
2022/08/08 08:50:36;;;;;;;;;;;21.10;99.90;;;;;;5075131;28;19916;-70
2022/08/08 08:53:06;;;;;;;;;;;21.30;99.90;;;;;;5071599;28;19966;-70
2022/08/08 08:55:33;;;;;;;;;;;21.40;99.90;;;;;;5072095;28;20011;-70
2022/08/08 08:58:00;;;;;;;;;;;21.60;99.90;;;;;;5075226;28;19924;-71
2022/08/08 09:00:26;;;;;;;;;;;21.60;99.90;;;;;;5073098;28;19925;-71
2022/08/08 09:02:52;;;;;;;;;;;21.50;99.90;;;;;;5072966;28;20248;-70
2022/08/08 09:05:20;;;;;;;;;;;21.70;99.90;;;;;;5073780;28;19927;-72
2022/08/08 09:07:46;;;;;;;;;;;21.80;99.90;;;;;;5073383;28;19973;-70
2022/08/08 09:10:13;;;;;;;;;;;21.90;99.90;;;;;;5073396;28;20306;-71
2022/08/08 09:12:38;;;;;;;;;;;21.50;99.90;;;;;;5072736;28;19916;-71
2022/08/08 09:15:05;;;;;;;;;;;21.40;99.90;;;;;;5073036;28;19927;-70
2022/08/08 09:17:31;;;;;;;;;;;21.50;99.90;;;;;;5070272;28;19982;-70
2022/08/08 09:19:58;;;;;;;;;;;21.90;99.90;;;;;;5071424;28;20008;-71
2022/08/08 09:22:24;;;;;;;;;;;22.20;99.90;;;;;;5073416;28;19917;-70
2022/08/08 09:24:50;;;;;;;;;;;22.20;99.90;;;;;;5072786;28;19923;-71
2022/08/08 09:27:17;;;;;;;;;;;22.30;99.90;;;;;;5069828;28;19920;-70
2022/08/08 09:29:49;;;;;;;;;;;22.50;99.90;;;;;;5073155;28;19920;-70
2022/08/08 09:32:16;;;;;;;;;;;22.30;99.90;;;;;;5070951;28;19916;-71
2022/08/08 09:34:45;;;;;;;;;;;22.00;99.90;;;;;;5072367;28;19945;-70
2022/08/08 09:37:16;;;;;;;;;;;22.00;99.90;;;;;;5069173;28;19943;-73
2022/08/08 09:39:47;;;;;;;;;;;22.10;99.90;;;;;;5073926;28;19919;-75
2022/08/08 09:42:14;;;;;;;;;;;22.20;99.90;;;;;;5071932;28;19916;-71
2022/08/08 09:44:39;;;;;;;;;;;22.50;99.90;;;;;;5101250;28;20544;-70
2022/08/08 09:47:06;;;;;;;;;;;22.60;99.90;;;;;;5071868;28;19916;-75
2022/08/08 09:49:32;;;;;;;;;;;22.60;99.90;;;;;;5070129;28;20011;-71
2022/08/08 09:51:58;;;;;;;;;;;22.80;99.90;;;;;;5074976;28;20311;-71
2022/08/08 09:54:27;;;;;;;;;;;23.00;99.90;;;;;;5073272;28;19965;-70
2022/08/08 09:56:54;;;;;;;;;;;23.30;99.90;;;;;;5073682;28;19999;-71
2022/08/08 09:59:24;;;;;;;;;;;23.40;99.90;;;;;;5070204;28;19931;-71
2022/08/08 10:01:54;;;;;;;;;;;23.40;99.90;;;;;;5069743;28;20125;-70
2022/08/08 10:04:21;;;;;;;;;;;23.30;99.90;;;;;;5073088;28;20278;-73
2022/08/08 10:06:47;;;;;;;;;;;23.40;99.90;;;;;;5068786;28;19962;-73
2022/08/08 10:09:12;;;;;;;;;;;23.30;99.90;;;;;;5071232;28;19920;-70
2022/08/08 10:11:38;;;;;;;;;;;23.30;99.90;;;;;;5069807;28;20007;-74
2022/08/08 10:14:06;;;;;;;;;;;23.20;99.90;;;;;;5070776;28;20308;-72
2022/08/08 10:16:39;;;;;;;;;;;23.00;99.90;;;;;;5104622;28;19921;-70
2022/08/08 10:19:05;;;;;;;;;;;23.00;99.90;;;;;;5072474;28;19963;-72
2022/08/08 10:21:34;;;;;;;;;;;23.00;99.90;;;;;;5072581;28;19923;-70
2022/08/08 10:24:05;;;;;;;;;;;23.10;99.90;;;;;;5068482;28;20473;-74
2022/08/08 10:26:46;;;;;;;;;;;23.30;99.90;;;;;;5051300;28;19928;-70
2022/08/08 10:29:12;;;;;;;;;;;23.20;99.90;;;;;;5071140;28;19962;-71
2022/08/08 10:34:24;;;;;;;;;;;23.30;99.90;;;;;;5071947;28;19919;-71
2022/08/08 10:36:51;;;;;;;;;;;23.30;99.90;;;;;;5071934;28;19931;-73
2022/08/08 10:39:18;;;;;;;;;;;23.10;99.60;;;;;;5071961;28;20058;-73
2022/08/08 10:41:53;;;;;;;;;;;23.10;99.80;;;;;;5072658;28;19912;-73
2022/08/08 10:44:23;;;;;;;;;;;23.10;99.60;;;;;;5080018;28;20005;-71
2022/08/08 10:46:49;;;;;;;;;;;23.00;99.30;;;;;;5066288;28;19917;-71
2022/08/08 10:49:18;;;;;;;;;;;23.10;98.80;;;;;;5067180;28;19916;-72
2022/08/08 10:51:44;;;;;;;;;;;23.20;99.10;;;;;;5067182;28;20077;-71
2022/08/08 10:54:17;;;;;;;;;;;23.30;99.90;;;;;;5068202;28;20647;-76
2022/08/08 10:56:43;;;;;;;;;;;23.40;98.80;;;;;;5099994;28;19931;-71
2022/08/08 10:59:09;;;;;;;;;;;23.10;98.60;;;;;;5068593;28;19928;-70
2022/08/08 11:01:36;;;;;;;;;;;23.20;99.90;;;;;;5066455;28;19924;-70
2022/08/08 11:04:05;;;;;;;;;;;23.20;99.90;;;;;;5069547;28;19978;-72
2022/08/08 11:06:34;;;;;;;;;;;23.00;99.70;;;;;;5069050;28;21341;-71
2022/08/08 11:09:04;;;;;;;;;;;22.70;99.90;;;;;;5066701;28;19920;-72
2022/08/08 11:11:57;;;;;;;;;;;22.70;99.90;;;;;;5068301;28;19931;-72
2022/08/08 11:14:23;;;;;;;;;;;22.50;99.90;;;;;;5066322;28;19924;-72
2022/08/08 11:16:49;;;;;;;;;;;22.80;99.90;;;;;;5066123;28;19929;-72
2022/08/08 11:19:15;;;;;;;;;;;22.60;99.90;;;;;;5068489;28;19916;-72
2022/08/08 11:21:44;;;;;;;;;;;22.40;99.90;;;;;;5065760;28;20307;-71
2022/08/08 11:24:10;;;;;;;;;;;22.20;99.90;;;;;;5068918;28;20223;-73
2022/08/08 11:26:37;;;;;;;;;;;22.10;99.90;;;;;;5066314;28;19923;-70
2022/08/08 11:29:04;;;;;;;;;;;21.90;99.90;;;;;;5064898;28;19958;-72
2022/08/08 11:31:40;;;;;;;;;;;21.90;99.90;;;;;;5064091;28;19920;-74
2022/08/08 11:34:06;;;;;;;;;;;21.80;99.90;;;;;;5061833;28;19969;-72
2022/08/08 11:36:33;;;;;;;;;;;22.20;99.90;;;;;;5061482;28;19924;-73
2022/08/08 11:38:58;;;;;;;;;;;22.70;99.90;;;;;;5065408;28;20364;-72
2022/08/08 11:41:24;;;;;;;;;;;23.00;99.90;;;;;;5062837;28;19920;-71
2022/08/08 11:43:52;;;;;;;;;;;23.00;99.90;;;;;;5064127;28;19917;-72
2022/08/08 11:46:18;;;;;;;;;;;23.20;99.90;;;;;;5071082;28;20281;-74
2022/08/08 11:48:44;;;;;;;;;;;23.20;99.90;;;;;;5066621;28;19916;-73
2022/08/08 11:51:09;;;;;;;;;;;23.40;99.90;;;;;;5062852;28;19973;-72
2022/08/08 11:53:36;;;;;;;;;;;23.50;99.80;;;;;;5064813;28;19916;-72
2022/08/08 11:56:01;;;;;;;;;;;23.60;99.50;;;;;;5065966;28;19927;-72
2022/08/08 11:58:31;;;;;;;;;;;23.70;99.90;;;;;;5066059;28;19916;-74
2022/08/08 12:00:57;;;;;;;;;;;23.60;99.90;;;;;;5066594;28;19916;-72
2022/08/08 12:03:24;;;;;;;;;;;23.30;99.90;;;;;;5065551;28;19928;-71
2022/08/08 12:05:50;;;;;;;;;;;23.00;99.90;;;;;;5064482;28;20425;-73
2022/08/08 12:08:16;;;;;;;;;;;22.90;99.90;;;;;;5062835;28;19960;-72
2022/08/08 12:10:49;;;;;;;;;;;22.70;99.90;;;;;;5064411;28;19924;-71
2022/08/08 12:13:20;;;;;;;;;;;22.50;99.90;;;;;;5067696;28;19920;-72
2022/08/08 12:15:48;;;;;;;;;;;22.70;99.90;;;;;;5065454;28;20331;-74
2022/08/08 12:18:15;;;;;;;;;;;22.70;99.90;;;;;;5065070;28;19977;-73
2022/08/08 12:20:41;;;;;;;;;;;22.50;99.90;;;;;;5065117;28;20015;-72
2022/08/08 12:23:06;;;;;;;;;;;22.30;99.90;;;;;;5065415;28;19999;-71
2022/08/08 12:25:32;;;;;;;;;;;22.30;99.90;;;;;;5065832;28;19917;-71
2022/08/08 12:28:14;;;;;;;;;;;22.40;99.90;;;;;;5066354;28;20203;-72
2022/08/08 12:30:44;;;;;;;;;;;22.40;99.90;;;;;;5065574;28;20023;-72
2022/08/08 12:33:16;;;;;;;;;;;22.20;99.90;;;;;;5061623;28;19981;-72
2022/08/08 12:35:42;;;;;;;;;;;22.20;99.90;;;;;;5076611;28;20351;-72
2022/08/08 12:38:07;;;;;;;;;;;22.30;99.90;;;;;;5066216;28;19971;-71
2022/08/08 12:40:38;;;;;;;;;;;22.40;99.90;;;;;;5070610;28;19916;-71
2022/08/08 12:43:03;;;;;;;;;;;22.70;99.90;;;;;;5066841;28;20491;-71
2022/08/08 12:45:36;;;;;;;;;;;22.90;99.90;;;;;;5064943;28;19916;-71
2022/08/08 12:48:03;;;;;;;;;;;23.30;99.90;;;;;;5067727;28;20003;-71
2022/08/08 12:50:42;;;;;;;;;;;23.50;99.90;;;;;;5064950;28;20042;-73
2022/08/08 12:53:21;;;;;;;;;;;23.70;99.90;;;;;;5067581;28;19920;-73
2022/08/08 12:55:50;;;;;;;;;;;23.80;99.10;;;;;;5068440;28;20362;-72
2022/08/08 12:58:16;;;;;;;;;;;23.80;99.20;;;;;;5070276;28;19999;-71
2022/08/08 13:00:41;;;;;;;;;;;23.90;99.90;;;;;;5068101;28;19999;-72
2022/08/08 13:03:08;;;;;;;;;;;24.00;99.90;;;;;;5067017;28;20223;-71
2022/08/08 13:05:33;;;;;;;;;;;24.10;99.90;;;;;;5064801;28;20027;-72
2022/08/08 13:07:59;;;;;;;;;;;24.30;99.90;;;;;;5065421;28;20054;-73
2022/08/08 13:10:31;;;;;;;;;;;24.30;99.90;;;;;;5063179;28;19924;-74
2022/08/08 13:13:00;;;;;;;;;;;24.40;99.30;;;;;;5065974;28;19916;-72
2022/08/08 13:15:28;;;;;;;;;;;24.10;99.50;;;;;;5064290;28;19970;-72
2022/08/08 13:17:53;;;;;;;;;;;24.20;99.70;;;;;;5067396;28;20370;-71
2022/08/08 13:20:20;;;;;;;;;;;24.10;99.90;;;;;;5069880;28;20012;-77
2022/08/08 13:22:46;;;;;;;;;;;23.70;99.60;;;;;;5068020;28;20266;-74
2022/08/08 13:25:18;;;;;;;;;;;23.40;99.90;;;;;;5068371;28;19912;-74
2022/08/08 13:27:50;;;;;;;;;;;23.30;99.90;;;;;;5067571;28;19959;-74
2022/08/08 13:30:16;;;;;;;;;;;23.20;99.90;;;;;;5070167;28;19995;-73
2022/08/08 13:32:41;;;;;;;;;;;23.10;99.90;;;;;;5069569;28;19999;-72
2022/08/08 13:35:08;;;;;;;;;;;22.90;99.90;;;;;;5067576;28;20061;-71
2022/08/08 13:37:34;;;;;;;;;;;22.70;99.90;;;;;;5073154;28;19931;-71
2022/08/08 13:40:01;;;;;;;;;;;22.60;99.90;;;;;;5074458;28;19916;-75
2022/08/08 13:42:27;;;;;;;;;;;22.60;99.90;;;;;;5070271;28;19919;-75
2022/08/08 13:44:56;;;;;;;;;;;22.60;99.90;;;;;;5067229;28;20447;-75
2022/08/08 13:47:22;;;;;;;;;;;22.80;99.90;;;;;;5088859;28;19967;-72
2022/08/08 13:50:04;;;;;;;;;;;22.90;99.90;;;;;;5074244;28;19979;-73
2022/08/08 13:52:30;;;;;;;;;;;23.30;99.90;;;;;;5071778;28;20016;-72
2022/08/08 13:54:57;;;;;;;;;;;23.20;99.90;;;;;;5071883;28;20369;-73
2022/08/08 13:57:29;;;;;;;;;;;23.20;99.90;;;;;;5072707;28;19924;-75
2022/08/08 14:00:14;;;;;;;;;;;23.10;99.90;;;;;;5073688;28;19920;-74
2022/08/08 14:02:40;;;;;;;;;;;23.20;99.90;;;;;;5070216;28;20259;-72
2022/08/08 14:05:08;;;;;;;;;;;23.30;99.90;;;;;;5072319;28;19923;-72
2022/08/08 14:07:34;;;;;;;;;;;23.30;99.90;;;;;;5073255;28;20208;-73
2022/08/08 14:10:21;;;;;;;;;;;23.40;99.90;;;;;;5073033;28;19916;-75
2022/08/08 14:12:47;;;;;;;;;;;23.50;99.90;;;;;;5070631;28;19966;-72
2022/08/08 14:15:32;;;;;;;;;;;23.50;99.90;;;;;;5069343;28;19920;-74
2022/08/08 14:18:04;;;;;;;;;;;23.50;99.90;;;;;;5068175;28;19967;-72
2022/08/08 14:20:31;;;;;;;;;;;23.40;99.90;;;;;;5070192;28;19923;-75
2022/08/08 14:23:07;;;;;;;;;;;23.30;99.90;;;;;;5071005;28;19987;-75
2022/08/08 14:25:46;;;;;;;;;;;23.30;99.90;;;;;;5071821;28;20038;-73
2022/08/08 14:28:13;;;;;;;;;;;23.30;99.90;;;;;;5071627;28;19920;-74
2022/08/08 14:30:39;;;;;;;;;;;23.40;99.90;;;;;;5073265;28;19951;-75
2022/08/08 14:33:05;;;;;;;;;;;23.50;99.90;;;;;;5072687;28;20329;-74
2022/08/08 14:35:30;;;;;;;;;;;23.40;99.90;;;;;;5103859;28;19924;-73
2022/08/08 14:37:59;;;;;;;;;;;23.30;99.90;;;;;;5103419;28;19923;-74